Terminal Aerodrome Forecast
Issued by NWS Caribou, ME

Home | Current Version | Previous Version | Text Only | Print | Product List | Glossary On
Versions: 1 2 3 4 5 6 7 8 9 10 11 12 13 14 15 16 17 18
000
FTUS41 KCAR 272320
TAFBGR
TAF
KBGR 272320Z 2800/2824 VRB03KT P6SM SCT040 BKN200
     FM280300 19002KT P6SM OVC040
     FM280700 18005KT 6SM -RA OVC025
     FM280900 20005KT 4SM -RA BR OVC012
     FM281500 24005KT 6SM -SHRA OVC020
     FM281800 26012G20KT P6SM BKN040=

USA.gov is the U.S. government's official web portal to all federal, state and local government web resources and services.